createdAt,value
2023-04-03T00:02:13.216Z,75.33
2023-04-03T00:07:16.115Z,74.04
2023-04-03T00:12:18.780Z,81.82
2023-04-03T00:17:21.739Z,71.45
2023-04-03T00:22:24.812Z,85.49
2023-04-03T00:27:27.543Z,79.07
2023-04-03T00:32:30.204Z,73.50
2023-04-03T00:37:33.418Z,72.94
2023-04-03T00:42:37.058Z,72.74
2023-04-03T00:47:42.006Z,80.42
2023-04-03T00:52:47.483Z,73.69
2023-04-03T00:57:50.640Z,80.33
2023-04-03T01:02:53.947Z,88.06
2023-04-03T01:07:57.948Z,78.93
2023-04-03T01:13:02.292Z,74.52
2023-04-03T01:18:05.899Z,85.83
2023-04-03T01:23:11.218Z,74.27
2023-04-03T01:28:20.418Z,75.94
2023-04-03T01:33:23.060Z,75.43
2023-04-03T01:38:26.622Z,79.28
2023-04-03T01:43:29.306Z,73.26
2023-04-03T01:48:31.929Z,90.22
2023-04-03T01:53:34.732Z,89.63
2023-04-03T01:58:37.475Z,76.45
2023-04-03T02:03:40.731Z,72.15
2023-04-03T02:08:43.305Z,76.38
2023-04-03T02:13:45.895Z,75.48
2023-04-03T02:18:48.568Z,95.49
2023-04-03T02:23:51.269Z,72.47
2023-04-03T02:28:55.362Z,72.25
2023-04-03T02:33:57.938Z,92.70
2023-04-03T02:39:00.665Z,75.89
2023-04-03T02:44:05.076Z,81.04
2023-04-03T02:49:08.647Z,70.60
2023-04-03T02:54:11.829Z,76.20
2023-04-03T02:59:18.498Z,84.60
2023-04-03T03:04:21.421Z,78.42
2023-04-03T03:09:24.184Z,68.89
2023-04-03T03:14:26.674Z,69.80
2023-04-03T03:19:29.234Z,64.88
2023-04-03T03:24:31.810Z,69.61
2023-04-03T03:29:34.368Z,65.73
2023-04-03T03:34:37.938Z,67.22
2023-04-03T03:39:42.038Z,70.49
2023-04-03T03:44:44.618Z,71.39
2023-04-03T03:49:47.296Z,78.01
2023-04-03T03:54:51.131Z,82.07
2023-04-03T03:59:53.965Z,73.75
2023-04-03T04:04:57.267Z,75.44
2023-04-03T04:10:00.208Z,78.53
2023-04-03T04:15:03.933Z,64.39
2023-04-03T04:20:07.001Z,69.68
2023-04-03T04:25:11.137Z,65.31
2023-04-03T04:30:16.536Z,66.52
2023-04-03T04:35:21.707Z,66.51
2023-04-03T04:40:27.910Z,68.61
2023-04-03T04:45:30.726Z,73.75
2023-04-03T04:50:33.555Z,68.08
2023-04-03T04:55:36.343Z,67.21
2023-04-03T05:00:39.972Z,65.70
2023-04-03T05:05:42.883Z,63.10
2023-04-03T05:10:47.199Z,72.29
2023-04-03T05:15:50.594Z,64.53
2023-04-03T05:20:53.320Z,65.80
2023-04-03T05:25:56.782Z,65.51
2023-04-03T05:31:00.516Z,72.79
2023-04-03T05:36:10.017Z,66.76
2023-04-03T05:41:19.032Z,82.30
2023-04-03T05:46:23.391Z,68.66
2023-04-03T05:51:34.841Z,66.07
2023-04-03T05:56:43.535Z,66.57
2023-04-03T06:01:47.339Z,65.70
2023-04-03T06:06:55.852Z,71.34
2023-04-03T06:12:01.883Z,66.22
2023-04-03T06:17:06.071Z,64.72
2023-04-03T06:22:08.879Z,67.92
2023-04-03T06:27:12.612Z,65.85
2023-04-03T06:32:16.174Z,67.71
2023-04-03T06:37:20.960Z,69.33
2023-04-03T06:42:23.935Z,70.02
2023-04-03T06:47:35.954Z,73.37
2023-04-03T06:52:38.776Z,61.99
2023-04-03T06:57:41.728Z,64.50
2023-04-03T07:02:44.441Z,70.30
2023-04-03T07:07:47.074Z,74.63
2023-04-03T07:12:49.898Z,74.82
2023-04-03T07:17:52.465Z,67.57
2023-04-03T07:22:55.102Z,72.40
2023-04-03T07:27:58.072Z,59.85
2023-04-03T07:33:00.642Z,60.25
2023-04-03T07:38:03.304Z,65.31
2023-04-03T07:43:07.132Z,61.15
2023-04-03T07:48:10.452Z,64.79
2023-04-03T07:53:13.138Z,64.38
2023-04-03T07:58:22.018Z,63.69
2023-04-03T08:03:25.043Z,66.19
2023-04-03T08:08:30.897Z,65.45
2023-04-03T08:13:36.882Z,66.91
2023-04-03T08:18:40.386Z,66.14
2023-04-03T08:23:43.471Z,70.73
2023-04-03T08:28:49.563Z,61.85
2023-04-03T08:33:52.444Z,65.76
2023-04-03T08:39:04.880Z,68.32
2023-04-03T08:44:30.661Z,62.90
2023-04-03T08:50:10.700Z,67.71
2023-04-03T08:55:27.084Z,63.86
2023-04-03T09:00:54.276Z,64.18
2023-04-03T09:06:34.148Z,60.88
2023-04-03T09:12:10.752Z,61.12
2023-04-03T09:17:37.791Z,56.05
2023-04-03T09:22:52.269Z,58.40
2023-04-03T09:27:59.067Z,56.14
2023-04-03T09:33:03.016Z,57.05
2023-04-03T09:38:17.861Z,58.36
2023-04-03T09:43:28.565Z,62.68
2023-04-03T09:48:33.701Z,63.51
2023-04-03T09:53:44.944Z,60.01
2023-04-03T09:58:52.378Z,59.59
2023-04-03T10:04:19.037Z,56.27
2023-04-03T10:09:34.325Z,65.51
2023-04-03T10:14:55.896Z,62.79
2023-04-03T10:20:30.794Z,65.33
2023-04-03T10:25:52.743Z,64.90
2023-04-03T10:31:14.860Z,58.50
2023-04-03T10:36:40.458Z,64.92
2023-04-03T10:42:17.240Z,61.84
2023-04-03T10:47:34.149Z,58.29
2023-04-03T10:52:56.554Z,60.80
2023-04-03T10:58:01.087Z,56.39
2023-04-03T11:03:19.310Z,57.80
2023-04-03T11:08:32.489Z,63.29
2023-04-03T11:13:41.482Z,60.73
2023-04-03T11:19:01.156Z,56.53
2023-04-03T11:24:09.107Z,54.59
2023-04-03T11:29:34.264Z,64.36
2023-04-03T11:34:44.400Z,59.76
2023-04-03T11:39:56.124Z,56.76
2023-04-03T11:45:52.507Z,55.49
2023-04-03T11:50:57.999Z,56.03
2023-04-03T11:56:01.924Z,59.45
2023-04-03T12:01:10.979Z,56.69
2023-04-03T12:06:17.891Z,52.94
2023-04-03T12:11:31.559Z,49.38
2023-04-03T12:16:40.828Z,59.52
2023-04-03T12:21:53.329Z,51.70
2023-04-03T12:27:01.800Z,59.01
2023-04-03T12:32:25.476Z,52.03
2023-04-03T12:37:36.901Z,53.65
2023-04-03T12:42:58.208Z,57.43
2023-04-03T12:48:05.906Z,53.25
2023-04-03T12:53:18.395Z,55.21
2023-04-03T12:58:27.549Z,53.95
2023-04-03T13:03:31.045Z,54.00
2023-04-03T13:08:33.972Z,57.13
2023-04-03T13:13:36.927Z,53.32
2023-04-03T13:18:40.098Z,52.49
2023-04-03T13:23:47.953Z,49.97
2023-04-03T13:28:52.641Z,47.72
2023-04-03T13:34:04.360Z,51.22
2023-04-03T13:39:12.063Z,47.69
2023-04-03T13:44:17.583Z,52.77
2023-04-03T13:49:33.416Z,50.59
2023-04-03T13:54:40.876Z,50.58
2023-04-03T13:59:44.528Z,45.73
2023-04-03T14:04:47.095Z,53.53
2023-04-03T14:09:49.909Z,46.16
2023-04-03T14:14:52.776Z,48.29
2023-04-03T14:19:57.702Z,48.85
2023-04-03T14:25:00.477Z,49.89
2023-04-03T14:30:05.183Z,50.04
2023-04-03T14:35:08.311Z,55.24
2023-04-03T14:40:14.538Z,50.54
2023-04-03T14:45:19.633Z,45.84
2023-04-03T14:50:25.619Z,46.71
2023-04-03T14:55:29.038Z,42.56
2023-04-03T15:00:31.731Z,42.07
2023-04-03T15:05:38.649Z,46.13
2023-04-03T15:10:41.536Z,48.18
2023-04-03T15:15:44.586Z,48.49
2023-04-03T15:20:48.569Z,45.00
2023-04-03T15:25:51.319Z,45.21
2023-04-03T15:30:54.093Z,47.41
2023-04-03T15:36:06.508Z,39.70
2023-04-03T15:41:10.319Z,45.67
2023-04-03T15:46:14.660Z,51.56
2023-04-03T15:51:17.348Z,53.26
2023-04-03T15:56:19.846Z,44.34
2023-04-03T16:01:22.582Z,44.66
2023-04-03T16:06:26.575Z,40.32
2023-04-03T16:11:29.718Z,45.55
2023-04-03T16:16:36.701Z,43.18
2023-04-03T16:21:39.670Z,49.29
2023-04-03T16:26:42.462Z,48.39
2023-04-03T16:31:45.260Z,49.64
2023-04-03T16:36:48.055Z,58.67
2023-04-03T16:41:51.176Z,59.31
2023-04-03T16:46:53.944Z,56.08
2023-04-03T16:51:56.788Z,50.96
2023-04-03T16:56:59.654Z,55.79
2023-04-03T17:02:02.271Z,51.65
2023-04-03T17:07:07.257Z,55.13
2023-04-03T17:12:10.036Z,51.32
2023-04-03T17:17:13.043Z,51.56
2023-04-03T17:22:17.684Z,48.39
2023-04-03T17:27:20.224Z,51.27
2023-04-03T17:32:23.002Z,49.03
2023-04-03T17:37:25.714Z,50.00
2023-04-03T17:42:31.486Z,53.90
2023-04-03T17:47:34.327Z,50.27
2023-04-03T17:52:37.019Z,48.57
2023-04-03T17:57:40.152Z,49.89
2023-04-03T18:02:43.579Z,49.87
2023-04-03T18:07:46.500Z,48.26
2023-04-03T18:12:49.150Z,47.95
2023-04-03T18:17:56.741Z,55.26
2023-04-03T18:23:00.364Z,53.62
2023-04-03T18:28:06.595Z,55.06
2023-04-03T18:33:09.284Z,54.42
2023-04-03T18:38:12.123Z,59.92
2023-04-03T18:43:15.668Z,50.10
2023-04-03T18:48:18.609Z,57.23
2023-04-03T18:53:21.829Z,51.64
2023-04-03T18:58:24.437Z,56.00
2023-04-03T19:03:28.005Z,66.00
2023-04-03T19:08:31.027Z,52.63
2023-04-03T19:13:34.451Z,65.30
2023-04-03T19:18:38.216Z,53.44
2023-04-03T19:23:43.036Z,56.43
2023-04-03T19:28:49.029Z,55.64
2023-04-03T19:33:52.050Z,53.63
2023-04-03T19:38:54.703Z,55.61
2023-04-03T19:43:57.680Z,56.92
2023-04-03T19:49:00.505Z,55.44
2023-04-03T19:54:03.309Z,56.46
2023-04-03T19:59:06.450Z,50.21
2023-04-03T20:04:09.687Z,55.84
2023-04-03T20:09:12.695Z,57.60
2023-04-03T20:14:16.848Z,66.72
2023-04-03T20:19:19.699Z,51.66
2023-04-03T20:24:22.445Z,58.98
2023-04-03T20:29:25.969Z,59.84
2023-04-03T20:34:28.519Z,63.19
2023-04-03T20:39:31.568Z,55.51
2023-04-03T20:44:34.190Z,61.64
2023-04-03T20:49:37.813Z,60.94
2023-04-03T20:54:41.250Z,58.32
2023-04-03T20:59:44.053Z,60.45
2023-04-03T21:04:56.288Z,59.40
2023-04-03T21:10:36.165Z,65.00
2023-04-03T21:15:55.167Z,61.35
2023-04-03T21:20:57.785Z,62.68
2023-04-03T21:26:01.601Z,60.85
2023-04-03T21:31:04.152Z,56.88
2023-04-03T21:36:07.852Z,58.31
2023-04-03T21:41:10.633Z,62.54
2023-04-03T21:46:13.895Z,61.86
2023-04-03T21:51:19.508Z,66.03
2023-04-03T21:56:22.950Z,77.53
2023-04-03T22:01:25.722Z,59.52
2023-04-03T22:06:28.943Z,60.68
2023-04-03T22:11:31.453Z,63.11
2023-04-03T22:16:33.964Z,59.21
2023-04-03T22:21:36.633Z,57.16
2023-04-03T22:26:44.492Z,60.21
2023-04-03T22:31:47.114Z,60.91
2023-04-03T22:36:49.610Z,55.60
2023-04-03T22:41:52.759Z,58.34
2023-04-03T22:46:55.315Z,60.15
2023-04-03T22:51:57.889Z,57.31
2023-04-03T22:57:00.419Z,58.55
2023-04-03T23:02:03.404Z,63.83
2023-04-03T23:07:05.975Z,58.97
2023-04-03T23:12:10.133Z,62.18
2023-04-03T23:17:12.986Z,57.90
2023-04-03T23:22:15.926Z,56.17
2023-04-03T23:27:18.641Z,57.75
2023-04-03T23:32:21.404Z,60.95
2023-04-03T23:37:23.918Z,66.60
2023-04-03T23:42:26.388Z,77.28
2023-04-03T23:47:28.996Z,78.13
2023-04-03T23:52:31.646Z,58.84
2023-04-03T23:57:34.153Z,62.07
